Delta, Louisiana
Current Conditions -  °F | °C
As of 11:15 AM on Friday 19 Dec 2014 (Local Time) from KVKS Reporting Station
Haze Haze  
Wind Chill:   Ceiling: 3200
Heat Index:   Visibility: 5mi
Dew Point:   Wind: 6mph
Humidity: 93%   Direction: 50°NE
Pressure: 30.18"   Gusts: NA
Location:  32.33°N, 90.93°W
Report Text: KVKS 191715Z AUTO 05005KT 5SM BR OVC032 08/07 A3018 RMK A01
Loading
Personal Weather Stations






























Interactive Weather Map New forecast layout! Learn more

10-Day Weather Forecast

Advertisements
Track Severe Weather on mobile